^^
Grace C. Lehan Memorial Weather Station Historical Data
Daily Summary for September 26, 2021 Units:  Both    English   Metric
Daily Weekly Monthly Yearly
  High: Low: Average:
Temperature: 47.7 °F /  8.7 °C 35.3 °F /  1.8 °C 41.1 °F /  5.1 °C
Dew Point: 42.7 °F /  5.9 °C 29.8 °F /  -1.2 °C 35.9 °F /  2.2 °C
Humidity: 94% 56.8% 82%
Wind Speed: 14.4mph /  23.2km/h - 2.7mph /  4.3km/h
Wind Gust: 30mph /  48.3km/h - -
Wind- - West
Pressure: 29.73 in /  1006.7 hPa 29.47 in /  997.9 hPa -
Precipitation: 0.20 in /  5.08 mm    
 
 
Tabular Data for September 26, 2021
Time Temperature Dew Point Pressure Wind Wind Speed Wind Gust Humidity Rainfall Rate (Hourly) solar
00:04 47.7 °F /  8.7 °C 33.2 °F /  0.7 °C 29.73in /  1006.7hPa Calm   1mph /  1.6km/h 56.8% 0.00in /  0mm 0 W/m2
00:09 47.7 °F /  8.7 °C 33.9 °F /  1.1 °C 29.73in /  1006.7hPa Calm     58.7% 0.00in /  0mm 0 W/m2
00:14 47.7 °F /  8.7 °C 34.6 °F /  1.4 °C 29.72in /  1006.3hPa Calm     60.1% 0.00in /  0mm 0 W/m2
00:19 47.7 °F /  8.7 °C 35.3 °F /  1.8 °C 29.71in /  1006hPa Calm     62% 0.00in /  0mm 0 W/m2
00:24 47.6 °F /  8.7 °C 35.6 °F /  2 °C 29.71in /  1006hPa Calm     62.8% 0.00in /  0mm 0 W/m2
00:29 47.5 °F /  8.6 °C 36 °F /  2.2 °C 29.71in /  1006hPa Calm     64% 0.00in /  0mm 0 W/m2
00:34 47.4 °F /  8.6 °C 36.2 °F /  2.3 °C 29.71in /  1006hPa Calm     64.9% 0.00in /  0mm 0 W/m2
00:39 47.3 °F /  8.5 °C 36.6 °F /  2.6 °C 29.71in /  1006hPa Calm   1mph /  1.6km/h 66.2% 0.00in /  0mm 0 W/m2
00:44 47.1 °F /  8.4 °C 37.2 °F /  2.9 °C 29.71in /  1006hPa Calm   1mph /  1.6km/h 68% 0.00in /  0mm 0 W/m2
00:49 46.8 °F /  8.2 °C 37 °F /  2.8 °C 29.70in /  1005.6hPa Calm   1mph /  1.6km/h 68.3% 0.00in /  0mm 0 W/m2
00:54 46.6 °F /  8.1 °C 36.6 °F /  2.6 °C 29.71in /  1006hPa Calm   1mph /  1.6km/h 68% 0.00in /  0mm 0 W/m2
00:59 46.4 °F /  8 °C 36.9 °F /  2.7 °C 29.71in /  1006hPa Calm   1mph /  1.6km/h 69.3% 0.00in /  0mm 0 W/m2
01:04 46.2 °F /  7.9 °C 37.5 °F /  3.1 °C 29.71in /  1006hPa Calm   1mph /  1.6km/h 71.5% 0.00in /  0mm 0 W/m2
01:09 45.9 °F /  7.7 °C 37.4 °F /  3 °C 29.71in /  1006hPa Calm     72% 0.00in /  0mm 0 W/m2
01:14 45.7 °F /  7.6 °C 37.2 °F /  2.9 °C 29.70in /  1005.6hPa Calm     72% 0.00in /  0mm 0 W/m2
01:19 45.6 °F /  7.6 °C 37.4 °F /  3 °C 29.70in /  1005.6hPa Calm     72.7% 0.00in /  0mm 0 W/m2
01:24 45.5 °F /  7.5 °C 37.7 °F /  3.2 °C 29.70in /  1005.6hPa Calm     73.8% 0.00in /  0mm 0 W/m2
01:29 45.5 °F /  7.5 °C 37.7 °F /  3.2 °C 29.70in /  1005.6hPa Calm     74% 0.00in /  0mm 0 W/m2
01:34 45.4 °F /  7.4 °C 37.9 °F /  3.3 °C 29.70in /  1005.6hPa Calm     74.8% 0.00in /  0mm 0 W/m2
01:39 45.4 °F /  7.4 °C 38.3 °F /  3.5 °C 29.70in /  1005.6hPa Calm     76% 0.00in /  0mm 0 W/m2
01:44 45.4 °F /  7.4 °C 38.3 °F /  3.5 °C 29.69in /  1005.3hPa Calm     76% 0.00in /  0mm 0 W/m2
01:49 45.4 °F /  7.4 °C 38.3 °F /  3.5 °C 29.70in /  1005.6hPa Calm     76% 0.00in /  0mm 0 W/m2
01:54 45.4 °F /  7.4 °C 38.3 °F /  3.5 °C 29.70in /  1005.6hPa Calm     76% 0.00in /  0mm 0 W/m2
01:59 45.4 °F /  7.4 °C 38.4 °F /  3.6 °C 29.69in /  1005.3hPa Calm     76.2% 0.00in /  0mm 0 W/m2
02:04 45.5 °F /  7.5 °C 38.9 °F /  3.8 °C 29.69in /  1005.3hPa Calm     77.7% 0.00in /  0mm 0 W/m2
02:09 45.5 °F /  7.5 °C 39.4 °F /  4.1 °C 29.68in /  1005hPa Calm     79% 0.00in /  0mm 0 W/m2
02:14 45.4 °F /  7.4 °C 39.5 °F /  4.2 °C 29.68in /  1005hPa Calm     79.6% 0.00in /  0mm 0 W/m2
02:19 45.4 °F /  7.4 °C 39.8 °F /  4.3 °C 29.68in /  1005hPa Calm     80.6% 0.00in /  0mm 0 W/m2
02:24 45.2 °F /  7.3 °C 39.7 °F /  4.3 °C 29.67in /  1004.6hPa Calm     81% 0.00in /  0mm 0 W/m2
02:29 45 °F /  7.2 °C 39.5 °F /  4.2 °C 29.67in /  1004.6hPa Calm     81% 0.00in /  0mm 0 W/m2
02:34 44.9 °F /  7.2 °C 39.7 °F /  4.3 °C 29.67in /  1004.6hPa Calm     81.9% 0.00in /  0mm 0 W/m2
02:39 44.8 °F /  7.1 °C 39.6 °F /  4.2 °C 29.66in /  1004.3hPa Calm     82% 0.00in /  0mm 0 W/m2
02:44 44.7 °F /  7.1 °C 39.8 °F /  4.3 °C 29.66in /  1004.3hPa Calm     83% 0.00in /  0mm 0 W/m2
02:49 44.6 °F /  7 °C 39.8 °F /  4.3 °C 29.65in /  1003.9hPa Calm     83.1% 0.00in /  0mm 0 W/m2
02:54 44.5 °F /  6.9 °C 40 °F /  4.4 °C 29.64in /  1003.6hPa Calm     84% 0.00in /  0mm 0 W/m2
02:59 44.4 °F /  6.9 °C 39.8 °F /  4.3 °C 29.64in /  1003.6hPa Calm     84% 0.00in /  0mm 0 W/m2
03:04 44.3 °F /  6.8 °C 40 °F /  4.4 °C 29.64in /  1003.6hPa Calm     84.9% 0.00in /  0mm 0 W/m2
03:05 44.2 °F /  6.8 °C 40 °F /  4.4 °C 29.64in /  1003.6hPa Calm     85% 0.00in /  0mm 0 W/m2
03:30 43.6 °F /  6.4 °C 40 °F /  4.4 °C 29.64in /  1003.6hPa Calm     87% 0.00in /  0mm 0 W/m2
04:04 43.3 °F /  6.3 °C 40 °F /  4.4 °C 29.64in /  1003.6hPa Calm     87.9% 0.01in /  0.25mm 0 W/m2
04:09 43.3 °F /  6.3 °C 40.2 °F /  4.6 °C 29.63in /  1003.3hPa Calm     88.6% 0.01in /  0.25mm 0 W/m2
04:14 43.2 °F /  6.2 °C 40.2 °F /  4.6 °C 29.63in /  1003.3hPa Calm     89% 0.01in /  0.25mm 0 W/m2
04:19 43.2 °F /  6.2 °C 40.1 °F /  4.5 °C 29.63in /  1003.3hPa Calm     89% 0.01in /  0.25mm 0 W/m2
04:24 43.1 °F /  6.2 °C 40.1 °F /  4.5 °C 29.63in /  1003.3hPa Calm     89% 0.01in /  0.25mm 0 W/m2
04:29 43.1 °F /  6.2 °C 40.1 °F /  4.5 °C 29.62in /  1002.9hPa Calm     89% 0.01in /  0.25mm 0 W/m2
04:34 43.1 °F /  6.2 °C 40.1 °F /  4.5 °C 29.62in /  1002.9hPa Calm     89% 0.01in /  0.25mm 0 W/m2
04:39 43.1 °F /  6.2 °C 40.1 °F /  4.5 °C 29.62in /  1002.9hPa Calm     89% 0.01in /  0.25mm 0 W/m2
04:44 43.1 °F /  6.2 °C 40.1 °F /  4.5 °C 29.62in /  1002.9hPa Calm     89% 0.01in /  0.25mm 0 W/m2
04:49 43.1 °F /  6.2 °C 40.1 °F /  4.5 °C 29.62in /  1002.9hPa Calm     89% 0.01in /  0.25mm 0 W/m2
04:54 43.1 °F /  6.2 °C 40.2 °F /  4.6 °C 29.62in /  1002.9hPa Calm     89.5% 0.01in /  0.25mm 0 W/m2
04:59 43.1 °F /  6.2 °C 40.3 °F /  4.6 °C 29.62in /  1002.9hPa Calm     89.8% 0.01in /  0.25mm 0 W/m2
05:04 43.1 °F /  6.2 °C 40.1 °F /  4.5 °C 29.62in /  1002.9hPa Calm     89% 0.01in /  0.25mm 0 W/m2
05:09 43.1 °F /  6.2 °C 40.1 °F /  4.5 °C 29.61in /  1002.6hPa Calm     89% 0.00in /  0mm 0 W/m2
05:14 43.1 °F /  6.2 °C 40.1 °F /  4.5 °C 29.61in /  1002.6hPa Calm     89% 0.00in /  0mm 0 W/m2
05:19 43.1 °F /  6.2 °C 40.1 °F /  4.5 °C 29.61in /  1002.6hPa Calm     89% 0.00in /  0mm 0 W/m2
05:24 43.1 °F /  6.2 °C 40.1 °F /  4.5 °C 29.61in /  1002.6hPa Calm     89% 0.00in /  0mm 0 W/m2
05:29 43.1 °F /  6.2 °C 40.1 °F /  4.5 °C 29.61in /  1002.6hPa Calm     89% 0.00in /  0mm 0 W/m2
05:34 43.1 °F /  6.2 °C 40.1 °F /  4.5 °C 29.61in /  1002.6hPa Calm     89% 0.00in /  0mm 0 W/m2
05:39 43.1 °F /  6.2 °C 40.1 °F /  4.5 °C 29.60in /  1002.3hPa Calm     89% 0.00in /  0mm 0 W/m2
05:44 43.1 °F /  6.2 °C 40.1 °F /  4.5 °C 29.60in /  1002.3hPa Calm     89% 0.00in /  0mm 0 W/m2
05:49 43.1 °F /  6.2 °C 40.1 °F /  4.5 °C 29.60in /  1002.3hPa Calm     89% 0.00in /  0mm 0 W/m2
05:54 43.1 °F /  6.2 °C 40 °F /  4.4 °C 29.60in /  1002.3hPa Calm     89% 0.00in /  0mm 0 W/m2
05:59 43 °F /  6.1 °C 40 °F /  4.4 °C 29.59in /  1001.9hPa Calm     89% 0.00in /  0mm 0 W/m2
06:04 43 °F /  6.1 °C 40 °F /  4.4 °C 29.59in /  1001.9hPa Calm     89% 0.00in /  0mm 0 W/m2
06:09 43 °F /  6.1 °C 40 °F /  4.4 °C 29.59in /  1001.9hPa Calm     89% 0.00in /  0mm 0 W/m2
06:14 43 °F /  6.1 °C 40 °F /  4.4 °C 29.59in /  1001.9hPa Calm     89% 0.00in /  0mm 0 W/m2
06:19 43 °F /  6.1 °C 40 °F /  4.4 °C 29.59in /  1001.9hPa Calm     89% 0.00in /  0mm 0 W/m2
06:24 42.9 °F /  6.1 °C 39.9 °F /  4.4 °C 29.59in /  1001.9hPa Calm     89% 0.00in /  0mm 0 W/m2
06:29 42.9 °F /  6.1 °C 39.9 °F /  4.4 °C 29.59in /  1001.9hPa Calm     89% 0.00in /  0mm 0 W/m2
06:34 42.9 °F /  6.1 °C 39.9 °F /  4.4 °C 29.59in /  1001.9hPa Calm     89% 0.00in /  0mm 0 W/m2
06:39 42.9 °F /  6.1 °C 39.9 °F /  4.4 °C 29.59in /  1001.9hPa Calm     89% 0.00in /  0mm 0 W/m2
06:44 42.9 °F /  6.1 °C 39.9 °F /  4.4 °C 29.59in /  1001.9hPa Calm     89% 0.00in /  0mm 0 W/m2
06:49 42.9 °F /  6.1 °C 39.9 °F /  4.4 °C 29.59in /  1001.9hPa Calm     89% 0.00in /  0mm 0 W/m2
06:54 42.9 °F /  6.1 °C 40.1 °F /  4.5 °C 29.59in /  1001.9hPa Calm     89.8% 0.00in /  0mm 0 W/m2
06:59 42.9 °F /  6.1 °C 40.2 °F /  4.6 °C 29.59in /  1001.9hPa Calm     90% 0.00in /  0mm 0 W/m2
07:04 42.9 °F /  6.1 °C 40.2 °F /  4.6 °C 29.59in /  1001.9hPa Calm     90% 0.00in /  0mm 0 W/m2
07:09 42.9 °F /  6.1 °C 40.2 °F /  4.6 °C 29.58in /  1001.6hPa Calm     90% 0.00in /  0mm 0 W/m2
07:14 42.9 °F /  6.1 °C 40.2 °F /  4.6 °C 29.58in /  1001.6hPa Calm     90% 0.00in /  0mm 0 W/m2
07:19 42.9 °F /  6.1 °C 40.2 °F /  4.6 °C 29.58in /  1001.6hPa Calm     90% 0.01in /  0.25mm 0 W/m2
07:24 42.9 °F /  6.1 °C 40.2 °F /  4.6 °C 29.57in /  1001.2hPa Calm     90% 0.01in /  0.25mm 5 W/m2
07:29 42.9 °F /  6.1 °C 40.4 °F /  4.7 °C 29.57in /  1001.2hPa Calm     90.6% 0.01in /  0.25mm 5 W/m2
07:34 42.9 °F /  6.1 °C 40.5 °F /  4.7 °C 29.58in /  1001.6hPa Calm     91% 0.01in /  0.25mm 7 W/m2
07:39 42.9 °F /  6.1 °C 40.5 °F /  4.7 °C 29.58in /  1001.6hPa Calm     91% 0.01in /  0.25mm 9 W/m2
07:44 42.9 °F /  6.1 °C 40.5 °F /  4.7 °C 29.58in /  1001.6hPa Calm     91% 0.01in /  0.25mm 11 W/m2
07:49 42.9 °F /  6.1 °C 40.5 °F /  4.7 °C 29.57in /  1001.2hPa Calm     91% 0.02in /  0.51mm 9 W/m2
07:54 42.9 °F /  6.1 °C 40.5 °F /  4.7 °C 29.57in /  1001.2hPa Calm     91% 0.02in /  0.51mm 11 W/m2
07:59 42.9 °F /  6.1 °C 40.4 °F /  4.7 °C 29.57in /  1001.2hPa Calm     91% 0.02in /  0.51mm 11 W/m2
08:04 42.9 °F /  6.1 °C 40.5 °F /  4.7 °C 29.57in /  1001.2hPa Calm     91% 0.00in /  0mm 11 W/m2
08:09 42.9 °F /  6.1 °C 40.7 °F /  4.8 °C 29.57in /  1001.2hPa Calm     91.8% 0.02in /  0.51mm 16 W/m2
08:14 42.9 °F /  6.1 °C 40.7 °F /  4.8 °C 29.57in /  1001.2hPa Calm     92% 0.02in /  0.51mm 16 W/m2
08:19 42.9 °F /  6.1 °C 40.7 °F /  4.8 °C 29.56in /  1000.9hPa Calm     92% 0.02in /  0.51mm 18 W/m2
08:24 42.9 °F /  6.1 °C 40.7 °F /  4.8 °C 29.57in /  1001.2hPa Calm     92% 0.02in /  0.51mm 19 W/m2
08:29 43 °F /  6.1 °C 40.8 °F /  4.9 °C 29.57in /  1001.2hPa Calm     92% 0.02in /  0.51mm 19 W/m2
08:34 43 °F /  6.1 °C 40.8 °F /  4.9 °C 29.57in /  1001.2hPa Calm     92% 0.02in /  0.51mm 23 W/m2
08:39 43 °F /  6.1 °C 40.8 °F /  4.9 °C 29.56in /  1000.9hPa Calm     92% 0.01in /  0.25mm 21 W/m2
08:44 43 °F /  6.1 °C 40.8 °F /  4.9 °C 29.56in /  1000.9hPa Calm     92% 0.01in /  0.25mm 23 W/m2
08:49 43 °F /  6.1 °C 40.8 °F /  4.9 °C 29.56in /  1000.9hPa Calm     92% 0.01in /  0.25mm 28 W/m2
08:54 43 °F /  6.1 °C 41.1 °F /  5.1 °C 29.55in /  1000.6hPa Calm     93% 0.02in /  0.51mm 35 W/m2
08:59 43.1 °F /  6.2 °C 41.2 °F /  5.1 °C 29.55in /  1000.6hPa Calm     93% 0.02in /  0.51mm 33 W/m2
09:04 43.1 °F /  6.2 °C 41.2 °F /  5.1 °C 29.55in /  1000.6hPa Calm     93% 0.02in /  0.51mm 26 W/m2
09:09 43.1 °F /  6.2 °C 41.2 °F /  5.1 °C 29.55in /  1000.6hPa Calm     93% 0.01in /  0.25mm 28 W/m2
09:14 43.2 °F /  6.2 °C 41.3 °F /  5.2 °C 29.54in /  1000.2hPa Calm     93% 0.01in /  0.25mm 26 W/m2
09:19 43.1 °F /  6.2 °C 41.2 °F /  5.1 °C 29.54in /  1000.2hPa Calm     93% 0.02in /  0.51mm 18 W/m2
09:23 43.1 °F /  6.2 °C 41.2 °F /  5.1 °C 29.54in /  1000.2hPa Calm     93% 0.02in /  0.51mm 14 W/m2
09:30 43.2 °F /  6.2 °C 41.3 °F /  5.2 °C 29.54in /  1000.2hPa Calm     93% 0.04in /  1.02mm 20 W/m2
10:00 43.4 °F /  6.3 °C 41.8 °F /  5.4 °C 29.53in /  999.9hPa Calm   1mph /  1.6km/h 94% 0.06in /  1.52mm 31 W/m2
10:30 43.8 °F /  6.6 °C 42.2 °F /  5.7 °C 29.52in /  999.5hPa Calm     94% 0.07in /  1.78mm 42 W/m2
11:00 44.1 °F /  6.7 °C 42.5 °F /  5.8 °C 29.50in /  998.9hPa Calm   5mph /  8km/h 94% 0.09in /  2.29mm 43 W/m2
11:30 44.3 °F /  6.8 °C 42.7 °F /  5.9 °C 29.49in /  998.5hPa Calm   5mph /  8km/h 94% 0.11in /  2.79mm 54 W/m2
12:04 43.8 °F /  6.6 °C 42 °F /  5.6 °C 29.49in /  998.5hPa WNW 7mph /  11.3km/h 14mph /  22.5km/h 93.1% 0.11in /  2.79mm 76 W/m2
12:09 43.7 °F /  6.5 °C 41.8 °F /  5.4 °C 29.48in /  998.2hPa WNW 7.5mph /  12.1km/h 19mph /  30.6km/h 93% 0.09in /  2.29mm 90 W/m2
12:14 43.5 °F /  6.4 °C 41.4 °F /  5.2 °C 29.48in /  998.2hPa NW 12mph /  19.3km/h 25mph /  40.2km/h 92.1% 0.09in /  2.29mm 105 W/m2
12:19 43.5 °F /  6.4 °C 41 °F /  5 °C 29.49in /  998.5hPa WNW 5.3mph /  8.5km/h 25mph /  40.2km/h 91% 0.09in /  2.29mm 107 W/m2
12:24 43.5 °F /  6.4 °C 40.9 °F /  4.9 °C 29.49in /  998.5hPa WNW 7.6mph /  12.2km/h 25mph /  40.2km/h 90.7% 0.09in /  2.29mm 83 W/m2
12:29 43.4 °F /  6.3 °C 40.7 °F /  4.8 °C 29.49in /  998.5hPa WNW 5.7mph /  9.2km/h 25mph /  40.2km/h 90% 0.09in /  2.29mm 44 W/m2
12:34 43.3 °F /  6.3 °C 40.6 °F /  4.8 °C 29.49in /  998.5hPa WNW 6.6mph /  10.6km/h 25mph /  40.2km/h 90% 0.09in /  2.29mm 39 W/m2
12:39 43.1 °F /  6.2 °C 40.2 °F /  4.6 °C 29.50in /  998.9hPa WNW 10.4mph /  16.7km/h 20mph /  32.2km/h 89.2% 0.00in /  0mm 72 W/m2
12:44 42.9 °F /  6.1 °C 39.6 °F /  4.2 °C 29.50in /  998.9hPa WNW 13.7mph /  22km/h 22mph /  35.4km/h 87.9% 0.00in /  0mm 91 W/m2
12:49 42.7 °F /  5.9 °C 39.1 °F /  3.9 °C 29.49in /  998.5hPa NW 8.5mph /  13.7km/h 22mph /  35.4km/h 87% 0.00in /  0mm 70 W/m2
12:54 42.6 °F /  5.9 °C 39.1 °F /  3.9 °C 29.48in /  998.2hPa WNW 8.8mph /  14.2km/h 22mph /  35.4km/h 87% 0.00in /  0mm 134 W/m2
12:59 42.6 °F /  5.9 °C 38.9 °F /  3.8 °C 29.48in /  998.2hPa WNW 9.4mph /  15.1km/h 22mph /  35.4km/h 86.7% 0.00in /  0mm 206 W/m2
13:04 42.7 °F /  5.9 °C 38.8 °F /  3.8 °C 29.48in /  998.2hPa WNW 10.1mph /  16.3km/h 22mph /  35.4km/h 85.9% 0.00in /  0mm 167 W/m2
13:09 42.7 °F /  5.9 °C 38.5 °F /  3.6 °C 29.48in /  998.2hPa WNW 6.1mph /  9.8km/h 22mph /  35.4km/h 85% 0.00in /  0mm 84 W/m2
13:14 42.7 °F /  5.9 °C 38.5 °F /  3.6 °C 29.48in /  998.2hPa NW 4.2mph /  6.8km/h 22mph /  35.4km/h 85.1% 0.00in /  0mm 102 W/m2
13:19 42.8 °F /  6 °C 38.9 °F /  3.8 °C 29.48in /  998.2hPa WNW 0.9mph /  1.4km/h 22mph /  35.4km/h 86.2% 0.00in /  0mm 199 W/m2
13:24 43 °F /  6.1 °C 39.4 °F /  4.1 °C 29.47in /  997.9hPa NW 3.3mph /  5.3km/h 22mph /  35.4km/h 87% 0.00in /  0mm 193 W/m2
13:29 43.1 °F /  6.2 °C 39.2 °F /  4 °C 29.47in /  997.9hPa NW 4.6mph /  7.4km/h 22mph /  35.4km/h 86.1% 0.00in /  0mm 214 W/m2
13:34 43.3 °F /  6.3 °C 39.2 °F /  4 °C 29.47in /  997.9hPa WNW 7.9mph /  12.7km/h 22mph /  35.4km/h 85.5% 0.00in /  0mm 214 W/m2
13:39 43.3 °F /  6.3 °C 38.9 °F /  3.8 °C 29.47in /  997.9hPa WNW 7.8mph /  12.6km/h 19mph /  30.6km/h 84.2% 0.00in /  0mm 202 W/m2
13:44 43.3 °F /  6.3 °C 38.6 °F /  3.7 °C 29.47in /  997.9hPa WNW 7.1mph /  11.4km/h 19mph /  30.6km/h 83.4% 0.00in /  0mm 146 W/m2
13:49 43.3 °F /  6.3 °C 38.4 °F /  3.6 °C 29.47in /  997.9hPa NW 8.3mph /  13.4km/h 21mph /  33.8km/h 82.7% 0.00in /  0mm 97 W/m2
13:54 43.1 °F /  6.2 °C 37.7 °F /  3.2 °C 29.47in /  997.9hPa WNW 6.5mph /  10.5km/h 22mph /  35.4km/h 81.3% 0.00in /  0mm 69 W/m2
13:59 42.9 °F /  6.1 °C 37.3 °F /  2.9 °C 29.47in /  997.9hPa WNW 9.6mph /  15.4km/h 22mph /  35.4km/h 80.5% 0.00in /  0mm 65 W/m2
14:04 42.7 °F /  5.9 °C 37 °F /  2.8 °C 29.47in /  997.9hPa WNW 9mph /  14.5km/h 22mph /  35.4km/h 80% 0.00in /  0mm 60 W/m2
14:09 42.5 °F /  5.8 °C 36.7 °F /  2.6 °C 29.47in /  997.9hPa WNW 13mph /  20.9km/h 25mph /  40.2km/h 79.6% 0.00in /  0mm 88 W/m2
14:14 42.4 °F /  5.8 °C 36.8 °F /  2.7 °C 29.47in /  997.9hPa WNW 12.2mph /  19.6km/h 25mph /  40.2km/h 80.5% 0.00in /  0mm 100 W/m2
14:19 42.4 °F /  5.8 °C 36.1 °F /  2.3 °C 29.48in /  998.2hPa NW 14.4mph /  23.2km/h 30mph /  48.3km/h 78.1% 0.00in /  0mm 90 W/m2
14:24 42.3 °F /  5.7 °C 35.7 °F /  2.1 °C 29.48in /  998.2hPa NW 13mph /  20.9km/h 30mph /  48.3km/h 77% 0.00in /  0mm 67 W/m2
14:29 42.3 °F /  5.7 °C 35.3 °F /  1.8 °C 29.48in /  998.2hPa WNW 11.3mph /  18.2km/h 30mph /  48.3km/h 76.2% 0.00in /  0mm 72 W/m2
14:34 42.2 °F /  5.7 °C 35.2 °F /  1.8 °C 29.48in /  998.2hPa WNW 11.3mph /  18.2km/h 30mph /  48.3km/h 76% 0.00in /  0mm 81 W/m2
14:39 42.2 °F /  5.7 °C 35 °F /  1.7 °C 29.49in /  998.5hPa WNW 10.2mph /  16.4km/h 21mph /  33.8km/h 75.5% 0.00in /  0mm 84 W/m2
14:44 42.1 °F /  5.6 °C 34.9 °F /  1.6 °C 29.49in /  998.5hPa WNW 10mph /  16.1km/h 21mph /  33.8km/h 75.2% 0.00in /  0mm 83 W/m2
14:49 42.1 °F /  5.6 °C 34.9 °F /  1.6 °C 29.48in /  998.2hPa WNW 7mph /  11.3km/h 21mph /  33.8km/h 75.3% 0.00in /  0mm 83 W/m2
14:54 42 °F /  5.6 °C 35 °F /  1.7 °C 29.49in /  998.5hPa WNW 9.3mph /  15km/h 21mph /  33.8km/h 76% 0.00in /  0mm 72 W/m2
14:59 41.9 °F /  5.5 °C 34.6 °F /  1.4 °C 29.49in /  998.5hPa NW 8.6mph /  13.8km/h 21mph /  33.8km/h 75.3% 0.00in /  0mm 47 W/m2
15:04 41.8 °F /  5.4 °C 34.4 °F /  1.3 °C 29.48in /  998.2hPa WNW 8.2mph /  13.2km/h 21mph /  33.8km/h 75% 0.00in /  0mm 32 W/m2
15:09 41.6 °F /  5.3 °C 34.3 °F /  1.3 °C 29.48in /  998.2hPa NW 7.4mph /  11.9km/h 17mph /  27.4km/h 75% 0.00in /  0mm 25 W/m2
15:14 41.4 °F /  5.2 °C 34.2 °F /  1.2 °C 29.48in /  998.2hPa WNW 9mph /  14.5km/h 17mph /  27.4km/h 75.2% 0.00in /  0mm 25 W/m2
15:19 41.3 °F /  5.2 °C 34.2 °F /  1.2 °C 29.49in /  998.5hPa WNW 8.4mph /  13.5km/h 17mph /  27.4km/h 75.6% 0.00in /  0mm 19 W/m2
15:24 41.2 °F /  5.1 °C 34.1 °F /  1.2 °C 29.49in /  998.5hPa WNW 12.5mph /  20.1km/h 25mph /  40.2km/h 75.4% 0.00in /  0mm 28 W/m2
15:29 41.2 °F /  5.1 °C 33.7 °F /  0.9 °C 29.49in /  998.5hPa WNW 8.8mph /  14.2km/h 25mph /  40.2km/h 74.4% 0.00in /  0mm 44 W/m2
15:34 41.2 °F /  5.1 °C 33.8 °F /  1 °C 29.50in /  998.9hPa WNW 6.5mph /  10.5km/h 25mph /  40.2km/h 74.7% 0.00in /  0mm 49 W/m2
15:39 41.3 °F /  5.2 °C 34 °F /  1.1 °C 29.50in /  998.9hPa WNW 6.4mph /  10.3km/h 14mph /  22.5km/h 75% 0.00in /  0mm 51 W/m2
15:44 41.3 °F /  5.2 °C 33.8 °F /  1 °C 29.50in /  998.9hPa WNW 6.4mph /  10.3km/h 15mph /  24.1km/h 74.5% 0.00in /  0mm 47 W/m2
15:49 41.2 °F /  5.1 °C 33.3 °F /  0.7 °C 29.50in /  998.9hPa WNW 8.5mph /  13.7km/h 17mph /  27.4km/h 73.1% 0.00in /  0mm 33 W/m2
15:54 41.1 °F /  5.1 °C 33.1 °F /  0.6 °C 29.51in /  999.2hPa NW 9.9mph /  15.9km/h 20mph /  32.2km/h 72.8% 0.00in /  0mm 25 W/m2
15:59 41 °F /  5 °C 33 °F /  0.6 °C 29.51in /  999.2hPa West 2.1mph /  3.4km/h 20mph /  32.2km/h 73.1% 0.00in /  0mm 18 W/m2
16:09 40.7 °F /  4.8 °C 33.3 °F /  0.7 °C 29.51in /  999.2hPa West 1.8mph /  2.9km/h 7mph /  11.3km/h 74.6% 0.00in /  0mm 7 W/m2
16:14 40.6 °F /  4.8 °C 33.4 °F /  0.8 °C 29.51in /  999.2hPa West 2.3mph /  3.7km/h 7mph /  11.3km/h 75% 0.00in /  0mm 0 W/m2
16:19 40.5 °F /  4.7 °C 33.1 °F /  0.6 °C 29.51in /  999.2hPa West 3.4mph /  5.5km/h 14mph /  22.5km/h 74.8% 0.00in /  0mm 0 W/m2
16:24 40.3 °F /  4.6 °C 33.1 °F /  0.6 °C 29.51in /  999.2hPa West 3.6mph /  5.8km/h 14mph /  22.5km/h 75% 0.00in /  0mm 0 W/m2
16:29 40.2 °F /  4.6 °C 32.9 °F /  0.5 °C 29.51in /  999.2hPa West 6.5mph /  10.5km/h 16mph /  25.7km/h 75.1% 0.00in /  0mm 0 W/m2
16:34 40.1 °F /  4.5 °C 32.8 °F /  0.4 °C 29.51in /  999.2hPa WNW 7.7mph /  12.4km/h 18mph /  29km/h 74.9% 0.00in /  0mm 0 W/m2
16:39 39.9 °F /  4.4 °C 32.3 °F /  0.2 °C 29.52in /  999.5hPa West 7.7mph /  12.4km/h 19mph /  30.6km/h 74% 0.00in /  0mm 0 W/m2
16:44 39.8 °F /  4.3 °C 32.2 °F /  0.1 °C 29.52in /  999.5hPa West 7.4mph /  11.9km/h 22mph /  35.4km/h 74% 0.00in /  0mm 0 W/m2
16:49 39.7 °F /  4.3 °C 32.1 °F /  0.1 °C 29.52in /  999.5hPa West 2.7mph /  4.3km/h 22mph /  35.4km/h 74% 0.00in /  0mm 0 W/m2
16:54 39.6 °F /  4.2 °C 32.3 °F /  0.2 °C 29.52in /  999.5hPa West 5.6mph /  9km/h 22mph /  35.4km/h 75% 0.00in /  0mm 0 W/m2
16:59 39.4 °F /  4.1 °C 32.3 °F /  0.2 °C 29.53in /  999.9hPa West 7.6mph /  12.2km/h 22mph /  35.4km/h 75.5% 0.00in /  0mm 0 W/m2
17:04 39.2 °F /  4 °C 32.3 °F /  0.2 °C 29.53in /  999.9hPa West 7.7mph /  12.4km/h 22mph /  35.4km/h 76.1% 0.00in /  0mm 0 W/m2
17:09 39 °F /  3.9 °C 32.4 °F /  0.2 °C 29.53in /  999.9hPa WNW 4mph /  6.4km/h 16mph /  25.7km/h 77% 0.00in /  0mm 0 W/m2
17:14 38.9 °F /  3.8 °C 32.6 °F /  0.3 °C 29.53in /  999.9hPa West 0.5mph /  0.8km/h 16mph /  25.7km/h 77.8% 0.00in /  0mm 0 W/m2
17:19 38.8 °F /  3.8 °C 32.8 °F /  0.4 °C 29.53in /  999.9hPa West 3.3mph /  5.3km/h 16mph /  25.7km/h 78.7% 0.00in /  0mm 0 W/m2
17:24 38.7 °F /  3.7 °C 32.8 °F /  0.4 °C 29.54in /  1000.2hPa WSW 1mph /  1.6km/h 16mph /  25.7km/h 79% 0.00in /  0mm 0 W/m2
17:29 38.6 °F /  3.7 °C 32.9 °F /  0.5 °C 29.54in /  1000.2hPa WSW 1.7mph /  2.7km/h 16mph /  25.7km/h 79.7% 0.00in /  0mm 0 W/m2
17:34 38.5 °F /  3.6 °C 32.9 °F /  0.5 °C 29.54in /  1000.2hPa WSW 2.3mph /  3.7km/h 16mph /  25.7km/h 80% 0.00in /  0mm 0 W/m2
17:39 38.4 °F /  3.6 °C 32.9 °F /  0.5 °C 29.54in /  1000.2hPa WSW 1.4mph /  2.3km/h 15mph /  24.1km/h 80.5% 0.00in /  0mm 0 W/m2
17:44 38.4 °F /  3.6 °C 33.1 °F /  0.6 °C 29.54in /  1000.2hPa WSW 2.3mph /  3.7km/h 15mph /  24.1km/h 81% 0.00in /  0mm 0 W/m2
17:49 38.3 °F /  3.5 °C 33 °F /  0.6 °C 29.54in /  1000.2hPa West 0.7mph /  1.1km/h 15mph /  24.1km/h 81% 0.00in /  0mm 0 W/m2
17:54 38.2 °F /  3.4 °C 33.2 °F /  0.7 °C 29.54in /  1000.2hPa WSW 0.7mph /  1.1km/h 15mph /  24.1km/h 81.9% 0.00in /  0mm 0 W/m2
17:59 38.2 °F /  3.4 °C 33.2 °F /  0.7 °C 29.54in /  1000.2hPa West 0.9mph /  1.4km/h 15mph /  24.1km/h 82% 0.00in /  0mm 0 W/m2
18:04 38.1 °F /  3.4 °C 33 °F /  0.6 °C 29.54in /  1000.2hPa West 0.4mph /  0.6km/h 15mph /  24.1km/h 81.7% 0.00in /  0mm 0 W/m2
18:09 38 °F /  3.3 °C 32.9 °F /  0.5 °C 29.54in /  1000.2hPa West 0.2mph /  0.3km/h 9mph /  14.5km/h 81.8% 0.00in /  0mm 0 W/m2
18:14 38 °F /  3.3 °C 33.3 °F /  0.7 °C 29.54in /  1000.2hPa WSW 0.9mph /  1.4km/h 13mph /  20.9km/h 83% 0.00in /  0mm 0 W/m2
18:19 37.8 °F /  3.2 °C 33.1 °F /  0.6 °C 29.53in /  999.9hPa WSW 2mph /  3.2km/h 13mph /  20.9km/h 83% 0.00in /  0mm 0 W/m2
18:24 37.7 °F /  3.2 °C 33.2 °F /  0.7 °C 29.53in /  999.9hPa West 1.7mph /  2.7km/h 13mph /  20.9km/h 83.8% 0.00in /  0mm 0 W/m2
18:29 37.5 °F /  3.1 °C 33.1 °F /  0.6 °C 29.53in /  999.9hPa WSW 2.6mph /  4.2km/h 13mph /  20.9km/h 83.8% 0.00in /  0mm 0 W/m2
18:34 37.4 °F /  3 °C 32.7 °F /  0.4 °C 29.53in /  999.9hPa WSW 2.2mph /  3.5km/h 16mph /  25.7km/h 83% 0.00in /  0mm 0 W/m2
18:39 37.3 °F /  2.9 °C 32.6 °F /  0.3 °C 29.53in /  999.9hPa WSW 0.3mph /  0.5km/h 16mph /  25.7km/h 82.8% 0.00in /  0mm 0 W/m2
18:44 37.3 °F /  2.9 °C 32.3 °F /  0.2 °C 29.53in /  999.9hPa WNW 2.8mph /  4.5km/h 16mph /  25.7km/h 81.9% 0.00in /  0mm 0 W/m2
18:49 37.3 °F /  2.9 °C 32 °F /  0 °C 29.53in /  999.9hPa West 0.7mph /  1.1km/h 16mph /  25.7km/h 81% 0.00in /  0mm 0 W/m2
18:54 37.3 °F /  2.9 °C 31.8 °F /  -0.1 °C 29.54in /  1000.2hPa West 3.1mph /  5km/h 16mph /  25.7km/h 80.4% 0.00in /  0mm 0 W/m2
18:59 37.3 °F /  2.9 °C 31.7 °F /  -0.2 °C 29.54in /  1000.2hPa WNW 4.5mph /  7.2km/h 16mph /  25.7km/h 80% 0.00in /  0mm 0 W/m2
19:04 37.3 °F /  2.9 °C 31.4 °F /  -0.3 °C 29.54in /  1000.2hPa West 3.8mph /  6.1km/h 16mph /  25.7km/h 79.1% 0.00in /  0mm 0 W/m2
19:09 37.3 °F /  2.9 °C 31.4 °F /  -0.3 °C 29.53in /  999.9hPa West 3.4mph /  5.5km/h 13mph /  20.9km/h 79% 0.00in /  0mm 0 W/m2
19:14 37.3 °F /  2.9 °C 31.4 °F /  -0.3 °C 29.53in /  999.9hPa West 3.1mph /  5km/h 13mph /  20.9km/h 79% 0.00in /  0mm 0 W/m2
19:19 37.3 °F /  2.9 °C 31.4 °F /  -0.3 °C 29.53in /  999.9hPa WSW 3.4mph /  5.5km/h 13mph /  20.9km/h 79% 0.00in /  0mm 0 W/m2
19:24 37.2 °F /  2.9 °C 31.3 °F /  -0.4 °C 29.53in /  999.9hPa West 6mph /  9.7km/h 18mph /  29km/h 79% 0.00in /  0mm 0 W/m2
19:29 37.1 °F /  2.8 °C 31 °F /  -0.6 °C 29.53in /  999.9hPa WSW 4mph /  6.4km/h 19mph /  30.6km/h 78.2% 0.00in /  0mm 0 W/m2
19:34 37 °F /  2.8 °C 30.8 °F /  -0.7 °C 29.53in /  999.9hPa West 5.7mph /  9.2km/h 19mph /  30.6km/h 78% 0.00in /  0mm 0 W/m2
19:39 36.9 °F /  2.7 °C 30.7 °F /  -0.7 °C 29.53in /  999.9hPa West 3.1mph /  5km/h 15mph /  24.1km/h 78% 0.00in /  0mm 0 W/m2
19:44 36.9 °F /  2.7 °C 30.6 °F /  -0.8 °C 29.53in /  999.9hPa West 3.6mph /  5.8km/h 15mph /  24.1km/h 77.9% 0.00in /  0mm 0 W/m2
19:49 36.8 °F /  2.7 °C 30.6 °F /  -0.8 °C 29.53in /  999.9hPa WSW 1.8mph /  2.9km/h 15mph /  24.1km/h 78% 0.00in /  0mm 0 W/m2
19:54 36.7 °F /  2.6 °C 30.3 °F /  -0.9 °C 29.53in /  999.9hPa West 7.7mph /  12.4km/h 18mph /  29km/h 77.2% 0.00in /  0mm 0 W/m2
19:59 36.6 °F /  2.6 °C 29.9 °F /  -1.2 °C 29.53in /  999.9hPa West 6.4mph /  10.3km/h 19mph /  30.6km/h 76.3% 0.00in /  0mm 0 W/m2
20:00 36.6 °F /  2.6 °C 29.8 °F /  -1.2 °C 29.53in /  999.9hPa WSW 5mph /  8km/h 19mph /  30.6km/h 76% 0.00in /  0mm 0 W/m2
20:09 36.5 °F /  2.5 °C 30 °F /  -1.1 °C 29.53in /  999.9hPa West 2mph /  3.2km/h 12mph /  19.3km/h 77% 0.00in /  0mm 0 W/m2
20:14 36.5 °F /  2.5 °C 30 °F /  -1.1 °C 29.53in /  999.9hPa WSW 5.1mph /  8.2km/h 15mph /  24.1km/h 77.2% 0.00in /  0mm 0 W/m2
20:19 36.4 °F /  2.4 °C 29.9 °F /  -1.2 °C 29.53in /  999.9hPa West 4.5mph /  7.2km/h 15mph /  24.1km/h 77% 0.00in /  0mm 0 W/m2
20:24 36.4 °F /  2.4 °C 30 °F /  -1.1 °C 29.54in /  1000.2hPa West 2.7mph /  4.3km/h 15mph /  24.1km/h 77.5% 0.00in /  0mm 0 W/m2
20:29 36.3 °F /  2.4 °C 30.1 °F /  -1.1 °C 29.54in /  1000.2hPa West 3.7mph /  6km/h 15mph /  24.1km/h 78% 0.00in /  0mm 0 W/m2
20:34 36.3 °F /  2.4 °C 30.1 °F /  -1.1 °C 29.54in /  1000.2hPa West 1.9mph /  3.1km/h 15mph /  24.1km/h 78% 0.00in /  0mm 0 W/m2
20:39 36.2 °F /  2.3 °C 30 °F /  -1.1 °C 29.54in /  1000.2hPa WNW 3.1mph /  5km/h 15mph /  24.1km/h 78% 0.00in /  0mm 0 W/m2
20:44 36.2 °F /  2.3 °C 30 °F /  -1.1 °C 29.54in /  1000.2hPa West 0.6mph /  1km/h 15mph /  24.1km/h 78% 0.00in /  0mm 0 W/m2
20:49 36.2 °F /  2.3 °C 30 °F /  -1.1 °C 29.54in /  1000.2hPa West 2.1mph /  3.4km/h 15mph /  24.1km/h 78% 0.00in /  0mm 0 W/m2
20:54 36.2 °F /  2.3 °C 30 °F /  -1.1 °C 29.54in /  1000.2hPa West 2.8mph /  4.5km/h 15mph /  24.1km/h 78% 0.00in /  0mm 0 W/m2
20:59 36.2 °F /  2.3 °C 30 °F /  -1.1 °C 29.54in /  1000.2hPa WSW 2.4mph /  3.9km/h 15mph /  24.1km/h 78% 0.00in /  0mm 0 W/m2
21:04 36.1 °F /  2.3 °C 29.9 °F /  -1.2 °C 29.54in /  1000.2hPa West 5.8mph /  9.3km/h 15mph /  24.1km/h 78% 0.00in /  0mm 0 W/m2
21:09 36.1 °F /  2.3 °C 29.9 °F /  -1.2 °C 29.54in /  1000.2hPa West 2.5mph /  4km/h 12mph /  19.3km/h 78% 0.00in /  0mm 0 W/m2
21:14 36.1 °F /  2.3 °C 30 °F /  -1.1 °C 29.53in /  999.9hPa West 2.5mph /  4km/h 12mph /  19.3km/h 78.1% 0.00in /  0mm 0 W/m2
21:19 36.1 °F /  2.3 °C 30.1 °F /  -1.1 °C 29.53in /  999.9hPa West 2.8mph /  4.5km/h 12mph /  19.3km/h 78.5% 0.00in /  0mm 0 W/m2
21:24 36.1 °F /  2.3 °C 30 °F /  -1.1 °C 29.53in /  999.9hPa West 3.7mph /  6km/h 19mph /  30.6km/h 78.2% 0.00in /  0mm 0 W/m2
21:29 36.1 °F /  2.3 °C 30.1 °F /  -1.1 °C 29.53in /  999.9hPa West 3.8mph /  6.1km/h 19mph /  30.6km/h 78.7% 0.00in /  0mm 0 W/m2
21:34 36 °F /  2.2 °C 30.1 °F /  -1.1 °C 29.53in /  999.9hPa West 2mph /  3.2km/h 19mph /  30.6km/h 79% 0.00in /  0mm 0 W/m2
21:39 36 °F /  2.2 °C 30.1 °F /  -1.1 °C 29.53in /  999.9hPa West 2mph /  3.2km/h 12mph /  19.3km/h 79% 0.00in /  0mm 0 W/m2
21:44 35.9 °F /  2.2 °C 30 °F /  -1.1 °C 29.53in /  999.9hPa WNW 3mph /  4.8km/h 12mph /  19.3km/h 79% 0.00in /  0mm 0 W/m2
21:49 35.9 °F /  2.2 °C 30 °F /  -1.1 °C 29.53in /  999.9hPa West 3.2mph /  5.1km/h 15mph /  24.1km/h 79% 0.00in /  0mm 0 W/m2
21:54 35.9 °F /  2.2 °C 30 °F /  -1.1 °C 29.53in /  999.9hPa WSW 2mph /  3.2km/h 15mph /  24.1km/h 79% 0.00in /  0mm 0 W/m2
21:59 35.8 °F /  2.1 °C 30 °F /  -1.1 °C 29.53in /  999.9hPa West 2.4mph /  3.9km/h 15mph /  24.1km/h 79.2% 0.00in /  0mm 0 W/m2
22:04 35.8 °F /  2.1 °C 30.2 °F /  -1 °C 29.53in /  999.9hPa West 2.4mph /  3.9km/h 15mph /  24.1km/h 80% 0.00in /  0mm 0 W/m2
22:09 35.7 °F /  2.1 °C 30.2 °F /  -1 °C 29.53in /  999.9hPa West 2.2mph /  3.5km/h 13mph /  20.9km/h 80% 0.00in /  0mm 0 W/m2
22:14 35.7 °F /  2.1 °C 30.2 °F /  -1 °C 29.53in /  999.9hPa West 1.1mph /  1.8km/h 13mph /  20.9km/h 80% 0.00in /  0mm 0 W/m2
22:19 35.6 °F /  2 °C 30.1 °F /  -1.1 °C 29.53in /  999.9hPa West 3.1mph /  5km/h 13mph /  20.9km/h 80% 0.00in /  0mm 0 W/m2
22:24 35.6 °F /  2 °C 30.1 °F /  -1.1 °C 29.53in /  999.9hPa West 1.8mph /  2.9km/h 13mph /  20.9km/h 80% 0.00in /  0mm 0 W/m2
22:29 35.5 °F /  1.9 °C 30 °F /  -1.1 °C 29.53in /  999.9hPa WSW 1.4mph /  2.3km/h 13mph /  20.9km/h 80.2% 0.00in /  0mm 0 W/m2
22:34 35.5 °F /  1.9 °C 30.3 °F /  -0.9 °C 29.53in /  999.9hPa West 2.6mph /  4.2km/h 13mph /  20.9km/h 81% 0.00in /  0mm 0 W/m2
22:39 35.4 °F /  1.9 °C 30.2 °F /  -1 °C 29.53in /  999.9hPa WSW 1.9mph /  3.1km/h 14mph /  22.5km/h 81% 0.00in /  0mm 0 W/m2
22:44 35.4 °F /  1.9 °C 30.2 °F /  -1 °C 29.53in /  999.9hPa WSW 2.7mph /  4.3km/h 14mph /  22.5km/h 81% 0.00in /  0mm 0 W/m2
22:49 35.4 °F /  1.9 °C 30.2 °F /  -1 °C 29.53in /  999.9hPa WSW 1.5mph /  2.4km/h 14mph /  22.5km/h 81% 0.00in /  0mm 0 W/m2
22:54 35.4 °F /  1.9 °C 30.1 °F /  -1.1 °C 29.53in /  999.9hPa SW 2mph /  3.2km/h 14mph /  22.5km/h 81% 0.00in /  0mm 0 W/m2
22:59 35.3 °F /  1.8 °C 30.1 °F /  -1.1 °C 29.53in /  999.9hPa SW 0.8mph /  1.3km/h 14mph /  22.5km/h 81% 0.00in /  0mm 0 W/m2
23:00 35.3 °F /  1.8 °C 30.1 °F /  -1.1 °C 29.53in /  999.9hPa Calm   14mph /  22.5km/h 81% 0.00in /  0mm 0 W/m2
23:09 35.3 °F /  1.8 °C 30.1 °F /  -1.1 °C 29.53in /  999.9hPa West 2.1mph /  3.4km/h 10mph /  16.1km/h 81% 0.00in /  0mm 0 W/m2
23:14 35.3 °F /  1.8 °C 30.1 °F /  -1.1 °C 29.53in /  999.9hPa WSW 1.2mph /  1.9km/h 11mph /  17.7km/h 81% 0.00in /  0mm 0 W/m2
23:19 35.3 °F /  1.8 °C 30.1 °F /  -1.1 °C 29.53in /  999.9hPa WSW 2mph /  3.2km/h 11mph /  17.7km/h 81% 0.00in /  0mm 0 W/m2
23:24 35.3 °F /  1.8 °C 30.1 °F /  -1.1 °C 29.53in /  999.9hPa WNW 1.3mph /  2.1km/h 11mph /  17.7km/h 81% 0.00in /  0mm 0 W/m2
23:29 35.3 °F /  1.8 °C 30.1 °F /  -1.1 °C 29.53in /  999.9hPa West 1.5mph /  2.4km/h 11mph /  17.7km/h 81% 0.00in /  0mm 0 W/m2
23:34 35.3 °F /  1.8 °C 30.1 °F /  -1.1 °C 29.54in /  1000.2hPa West 1.6mph /  2.6km/h 11mph /  17.7km/h 81% 0.00in /  0mm 0 W/m2
23:39 35.3 °F /  1.8 °C 30.1 °F /  -1.1 °C 29.54in /  1000.2hPa WSW 1.1mph /  1.8km/h 10mph /  16.1km/h 81% 0.00in /  0mm 0 W/m2
23:44 35.3 °F /  1.8 °C 30.3 °F /  -0.9 °C 29.53in /  999.9hPa West 0.9mph /  1.4km/h 10mph /  16.1km/h 81.7% 0.00in /  0mm 0 W/m2
23:49 35.3 °F /  1.8 °C 30.3 °F /  -0.9 °C 29.54in /  1000.2hPa West 3.2mph /  5.1km/h 11mph /  17.7km/h 81.8% 0.00in /  0mm 0 W/m2
23:54 35.3 °F /  1.8 °C 30.1 °F /  -1.1 °C 29.53in /  999.9hPa West 0.7mph /  1.1km/h 11mph /  17.7km/h 81% 0.00in /  0mm 0 W/m2
23:59 35.3 °F /  1.8 °C 30.1 °F /  -1.1 °C 29.53in /  999.9hPa West 0.8mph /  1.3km/h 11mph /  17.7km/h 81% 0.00in /  0mm 0 W/m2
Hartford County Weather
Compliments of Weather Underground - 2 mb